Flight Track Log - Related Links

Times and Time Zones

All times are in EDT time to prevent confusion due to time zone crossing. See the RAX500 flight status page for this flight to view local times or setup timezone preferences in your user account.

Time Position Orientation Groundspeed Altitude Reporting Facility
EDT Latitude Longitude Course Direction KTS MPH feet Rate Location/Type
Fri 03:59:45 PM 27.2172 -80.3158 320° Northwest 185 213 4,100  Level Miami Center
Fri 04:00:45 PM 27.2581 -80.3544 320° Northwest 192 221 6,700 2,400 Climbing Miami Center
Fri 04:01:45 PM 27.3200 -80.3914 332° Northwest 232 267 8,900 2,650 Climbing Miami Center
Fri 04:02:45 PM 27.3853 -80.4564 319° Northwest 279 321 12,000 2,900 Climbing Miami Center
Fri 04:03:45 PM 27.4572 -80.4961 334° Northwest 284 327 14,700 2,500 Climbing Miami Center
Fri 04:04:45 PM 27.5208 -80.5356 331° Northwest 289 333 17,000 2,300 Climbing Miami Center
Fri 04:05:45 PM 27.5944 -80.5989 323° Northwest 300 345 19,300 1,950 Climbing Miami Center
Fri 04:06:45 PM 27.6658 -80.6597 323° Northwest 310 357 20,900 1,600 Climbing Miami Center
Fri 04:07:45 PM 27.7436 -80.7211 325° Northwest 321 369 22,500 1,600 Climbing Miami Center
Fri 04:08:45 PM 27.8211 -80.7847 324° Northwest 336 387 24,100 1,550 Climbing Miami Center
Fri 04:09:45 PM 27.8947 -80.8414 326° Northwest 351 404 25,600 1,500 Climbing Miami Center
Fri 04:10:45 PM 27.9744 -80.9028 326° Northwest 351 404 27,100 1,500 Climbing Miami Center
Fri 04:11:45 PM 28.0583 -80.9647 327° Northwest 351 404 28,600 1,450 Climbing Miami Center
Fri 04:12:45 PM 28.1467 -81.0172 332° Northwest 351 404 30,000 1,400 Climbing Miami Center
Fri 04:13:45 PM 28.2347 -81.0747 330° Northwest 356 410 31,400 1,450 Climbing Miami Center
Fri 04:14:45 PM 28.3219 -81.1511 322° Northwest 357 411 32,900 1,250 Climbing Miami Center
Fri 04:15:45 PM 28.3972 -81.2153 323° Northwest 364 419 33,900 1,050 Climbing Miami Center
Fri 04:16:45 PM 28.4897 -81.2592 337° Northwest 364 419 35,000 821 Climbing Miami Center
Fri 04:17:20 PM 28.5572 -81.2736 349° North 364 419 35,200 442 Climbing Jacksonville Center
Fri 04:18:20 PM 28.6572 -81.2744 360° North 364 419 35,700 700 Climbing Jacksonville Center
Fri 04:19:20 PM 28.7681 -81.2797 358° North 382 440 36,600 800 Climbing Jacksonville Center
Fri 04:20:20 PM 28.8761 -81.2494 14° North 393 452 37,300 550 Climbing Jacksonville Center
Fri 04:21:20 PM 28.9819 -81.2072 19° North 393 452 37,700 400 Climbing Jacksonville Center
Fri 04:22:20 PM 29.0900 -81.1581 22° Northeast 401 461 38,100 550 Climbing Jacksonville Center
Fri 04:23:20 PM 29.2019 -81.1181 17° North 406 467 38,800 700 Climbing Jacksonville Center
Fri 04:24:20 PM 29.3100 -81.0828 16° North 406 467 39,500 650 Climbing Jacksonville Center
Fri 04:25:20 PM 29.4161 -81.0472 16° North 395 455 40,100 450 Climbing Jacksonville Center
Fri 04:26:20 PM 29.5178 -81.0097 18° North 390 449 40,400 350 Climbing Jacksonville Center
Fri 04:27:20 PM 29.6300 -80.9692 17° North 390 449 40,800 300 Climbing Jacksonville Center
Fri 04:28:20 PM 29.7336 -80.9336 17° North 395 455 41,000 100 Climbing Jacksonville Center
Fri 04:29:20 PM 29.8439 -80.8931 18° North 395 455 41,000  Level Jacksonville Center
Fri 04:30:20 PM 29.9517 -80.8550 17° North 395 455 41,000  Level Jacksonville Center
Fri 04:31:20 PM 30.0658 -80.8189 15° North 400 460 41,000  Level Jacksonville Center
Fri 04:32:20 PM 30.1800 -80.7781 17° North 407 468 41,000  Level Jacksonville Center
Fri 04:33:20 PM 30.2942 -80.7394 16° North 415 478 41,000  Level Jacksonville Center
Fri 04:34:20 PM 30.4108 -80.7128 11° North 420 483 41,000  Level Jacksonville Center
Fri 04:35:20 PM 30.5314 -80.6811 13° North 425 489 41,000 -50 Level Jacksonville Center
Fri 04:36:20 PM 30.6517 -80.6469 14° North 430 495 40,900  Descending Jacksonville Center
Fri 04:37:20 PM 30.7722 -80.6053 17° North 435 501 41,000 50 Climbing Jacksonville Center
Fri 04:38:20 PM 30.8925 -80.5686 15° North 435 501 41,000  Level Jacksonville Center
Fri 04:39:20 PM 31.0108 -80.5317 15° North 435 501 41,000  Level Jacksonville Center
Fri 04:40:20 PM 31.1353 -80.4897 16° North 440 506 41,000  Level Jacksonville Center
Fri 04:41:20 PM 31.2556 -80.4478 17° North 440 506 41,000 -50 Level Jacksonville Center
Fri 04:42:20 PM 31.3778 -80.3958 20° North 450 518 40,900 -50 Descending Jacksonville Center
Fri 04:43:20 PM 31.5003 -80.3536 16° North 455 524 40,900 50 Level Jacksonville Center
Fri 04:44:20 PM 31.6206 -80.3139 16° North 455 524 41,000 50 Climbing Jacksonville Center
Fri 04:45:20 PM 31.7472 -80.2833 12° North 450 518 41,000 -50 Level Jacksonville Center
Fri 04:46:20 PM 31.8694 -80.2383 17° North 450 518 40,900 -50 Descending Jacksonville Center
Fri 04:47:20 PM 31.9917 -80.1933 17° North 450 518 40,900  Level Jacksonville Center
Fri 04:48:20 PM 32.1139 -80.1503 17° North 450 518 40,900  Level Jacksonville Center
Fri 04:49:20 PM 32.2342 -80.1147 14° North 456 525 40,900  Level Jacksonville Center
Fri 04:50:20 PM 32.3564 -80.0694 17° North 451 519 40,900  Level Jacksonville Center
Fri 04:51:20 PM 32.4786 -80.0261 17° North 451 519 40,900  Level Jacksonville Center
Fri 04:52:20 PM 32.5964 -79.9756 20° North 451 519 40,900  Level Jacksonville Center
Fri 04:53:20 PM 32.7183 -79.9297 18° North 457 526 40,900  Level Jacksonville Center
Fri 04:54:20 PM 32.8389 -79.8986 12° North 452 520 40,900  Level Jacksonville Center
Fri 04:55:20 PM 32.9633 -79.8647 13° North 452 520 40,900  Level Jacksonville Center
Fri 04:56:20 PM 33.0978 -79.8156 17° North 452 520 40,900  Level Jacksonville Center
Fri 04:57:20 PM 33.2200 -79.7839 12° North 452 520 40,900  Level Jacksonville Center
Fri 04:58:20 PM 33.3425 -79.7522 12° North 452 520 40,900  Level Jacksonville Center
Fri 04:59:20 PM 33.4625 -79.7158 14° North 452 520 40,900  Level Jacksonville Center
Fri 05:00:20 PM 33.5825 -79.6742 16° North 447 514 40,900  Level Jacksonville Center
Fri 05:01:20 PM 33.7047 -79.6397 13° North 447 514 40,900  Level Jacksonville Center
Fri 05:02:20 PM 33.8269 -79.6050 13° North 447 514 40,900  Level Jacksonville Center
Fri 05:03:20 PM 33.9469 -79.5656 15° North 447 514 40,900  Level Jacksonville Center
Fri 05:05:23 PM 34.1817 -79.4803 17° North 444 511 40,900 33 Level Washington Center
Fri 05:06:23 PM 34.2933 -79.4456 14° North 450 518 41,000 49 Climbing Washington Center
Fri 05:07:25 PM 34.4136 -79.4033 16° North 450 518 41,000  Level Washington Center
Fri 05:08:25 PM 34.5319 -79.3533 19° North 445 512 41,000  Level Washington Center
Fri 05:09:23 PM 34.6503 -79.3083 17° North 445 512 41,000  Level Washington Center
Fri 05:10:24 PM 34.7706 -79.2658 16° North 445 512 41,000  Level Washington Center
Fri 05:11:25 PM 34.9028 -79.2364 10° North 439 505 41,000  Level Washington Center
Fri 05:12:25 PM 35.0269 -79.2089 10° North 434 499 41,000  Level Washington Center
Fri 05:13:23 PM 35.1469 -79.1711 14° North 434 499 41,000 -51 Level Washington Center
Fri 05:14:23 PM 35.2653 -79.1203 19° North 434 499 40,900  Descending Washington Center
Fri 05:15:24 PM 35.3836 -79.0694 19° North 453 521 41,000 50 Climbing Washington Center
Fri 05:16:24 PM 35.5017 -79.0261 17° North 441 507 41,000  Level Washington Center
Fri 05:18:25 PM 35.7394 -78.9544 14° North 441 507 41,000  Level Washington Center
Fri 05:19:26 PM 35.8556 -78.9108 17° North 436 502 41,000  Level Washington Center
Fri 05:20:24 PM 35.9714 -78.8694 16° North 436 502 41,000  Level Washington Center
Fri 05:21:24 PM 36.0892 -78.8333 14° North 436 502 41,000  Level Washington Center
Fri 05:22:25 PM 36.2069 -78.7994 13° North 436 502 41,000  Level Washington Center
Fri 05:23:25 PM 36.3228 -78.7603 15° North 436 502 41,000  Level Washington Center
Fri 05:24:23 PM 36.4408 -78.7161 17° North 436 502 41,000  Level Washington Center
Fri 05:25:24 PM 36.5586 -78.6769 15° North 436 502 41,000  Level Washington Center
Fri 05:26:25 PM 36.6725 -78.6347 17° North 436 502 41,000  Level Washington Center
Fri 05:27:25 PM 36.7922 -78.5981 14° North 436 502 41,000  Level Washington Center
Fri 05:28:23 PM 36.9081 -78.5558 16° North 436 502 41,000  Level Washington Center
Fri 05:29:24 PM 37.0131 -78.5233 14° North 436 502 41,000  Level Washington Center
Fri 05:30:26 PM 37.1331 -78.4889 13° North 436 502 41,000  Level Washington Center
Fri 05:31:24 PM 37.2506 -78.4514 14° North 436 502 41,000  Level Washington Center
Fri 05:32:24 PM 37.3789 -78.4067 15° North 436 502 41,000  Level Washington Center
Fri 05:33:25 PM 37.4947 -78.3664 15° North 436 502 41,000  Level Washington Center
Fri 05:34:25 PM 37.6064 -78.3156 20° North 436 502 41,000  Level Washington Center
Fri 05:35:23 PM 37.7181 -78.2617 21° North 431 496 41,000  Level Washington Center
Fri 05:36:25 PM 37.8211 -78.2233 16° North 431 496 41,000  Level Washington Center
Fri 05:37:25 PM 37.9306 -78.1797 17° North 425 489 41,000  Level Washington Center
Fri 05:38:23 PM 38.0419 -78.1361 17° North 418 481 41,000  Level Washington Center
Fri 05:39:24 PM 38.1556 -78.0925 17° North 418 481 41,000 -49 Level Washington Center
Fri 05:40:25 PM 38.2672 -78.0406 20° North 418 481 40,900 -50 Descending Washington Center
Fri 05:41:25 PM 38.3767 -77.9886 20° North 423 487 40,900 51 Level Washington Center
Fri 05:42:23 PM 38.4919 -77.9500 15° North 423 487 41,000 50 Climbing Washington Center
Fri 05:43:24 PM 38.6053 -77.9189 12° North 417 480 41,000  Level Washington Center
Fri 05:44:24 PM 38.7186 -77.8800 15° North 417 480 41,000  Level Washington Center
Fri 05:45:25 PM 38.8322 -77.8300 19° North 422 486 41,000  Level Washington Center
Fri 05:46:23 PM 38.9517 -77.7858 16° North 422 486 41,000 -51 Level Washington Center
Fri 05:47:23 PM 39.0544 -77.7542 13° North 417 480 40,900 -198 Descending Washington Center
Fri 05:48:24 PM 39.1864 -77.7206 11° North 422 486 40,600 -505 Descending Washington Center
Fri 05:50:33 PM 39.4258 -77.6333 16° North 436 502 39,300 -568 Descending New York Center
Fri 05:51:34 PM 39.5436 -77.5800 19° North 441 507 38,800 -492 Descending New York Center
Fri 05:52:35 PM 39.6608 -77.5347 17° North 441 507 38,300 -555 Descending New York Center
Fri 05:53:33 PM 39.7819 -77.5006 12° North 441 507 37,700 -605 Descending New York Center
Fri 05:54:34 PM 39.9042 -77.4769 North 441 507 37,100 -492 Descending New York Center
Fri 05:55:35 PM 40.0275 -77.4347 15° North 441 507 36,700 -694 Descending New York Center
Fri 05:56:35 PM 40.1564 -77.3681 22° Northeast 441 507 35,700 -814 Descending New York Center
Fri 05:57:33 PM 40.2725 -77.3031 23° Northeast 448 516 35,100 -504 Descending New York Center
Fri 05:58:34 PM 40.3875 -77.2594 16° North 440 506 34,700 -744 Descending New York Center
Fri 05:59:34 PM 40.5081 -77.2297 11° North 435 501 33,600 -1,100 Descending New York Center
Fri 06:00:34 PM 40.6328 -77.1950 12° North 441 507 32,500 -1,250 Descending New York Center
Fri 06:01:34 PM 40.7503 -77.1431 19° North 441 507 31,100 -1,462 Descending New York Center
Fri 06:02:33 PM 40.8703 -77.0828 21° North 446 513 29,600 -1,300 Descending New York Center
Fri 06:03:34 PM 40.9894 -77.0333 17° North 451 519 28,500 -992 Descending New York Center
Fri 06:04:34 PM 41.1106 -76.9922 14° North 451 519 27,600 -793 Descending New York Center
Fri 06:05:35 PM 41.2275 -76.9478 16° North 440 506 26,900 -958 Descending New York Center
Fri 06:06:33 PM 41.3403 -76.9000 18° North 434 499 25,700 -1,119 Descending New York Center
Fri 06:07:33 PM 41.4531 -76.8522 18° North 428 493 24,700 -1,041 Descending New York Center
Fri 06:08:34 PM 41.5494 -76.8000 22° Northeast 418 481 23,600 -1,091 Descending New York Center
Fri 06:09:34 PM 41.6667 -76.7467 19° North 412 474 22,500 -1,041 Descending New York Center
Fri 06:10:35 PM 41.7692 -76.7000 19° North 401 461 21,500 -1,091 Descending New York Center
Fri 06:11:35 PM 41.8736 -76.6508 19° North 395 455 20,300 -1,160 Descending New York Center
Fri 06:12:34 PM 41.9656 -76.6033 21° North 395 455 19,200 -1,200 Descending New York Center
Fri 06:13:35 PM 42.0672 -76.5675 15° North 389 448 17,900 -1,160 Descending New York Center
Fri 06:14:33 PM 42.1661 -76.5456 North 377 434 16,900 -1,627 Descending New York Center
Fri 06:15:33 PM 42.2614 -76.5119 15° North 362 417 14,700 -2,650 Descending New York Center
Fri 06:16:33 PM 42.3494 -76.4550 26° Northeast 351 404 11,600 -2,077 Descending New York Center
Fri 06:17:17 PM 42.4244 -76.4206 19° North 334 384 11,100 -424 Descending Boston Center
Fri 06:18:12 PM 42.5006 -76.3886 17° North 329 379 10,900 -52 Descending Boston Center
Fri 06:19:12 PM 42.5939 -76.3439 19° North 342 394 11,000 -496 Climbing Boston Center
Fri 06:20:13 PM 42.6722 -76.3092 18° North 281 323 9,900 -1,918 Descending Boston Center
Fri 06:21:14 PM 42.7461 -76.2800 16° North 273 314 7,100 -2,457 Descending Boston Center
Fri 06:22:20 PM 42.8264 -76.2511 15° North 271 312 4,700 -1,465 Descending Boston Center
Fri 06:23:21 PM 42.8964 -76.2183 19° North 266 306 4,000 -344 Descending Boston Center
Fri 06:24:22 PM 42.9653 -76.2086 North 263 303 4,000 -446 Level Boston Center
Fri 06:25:22 PM 43.0361 -76.2128 358° North 253 291 3,100 -1,041 Descending Boston Center
Fri 06:26:23 PM 43.0947 -76.2022 North 166 191 1,900 -1,180 Descending Boston Center

Login

Don't have an account? Register now (free) for customized features, flight alerts, and more!